Shonto, Arizona
Current Conditions -  °F | °C
As of 11:15 PM on Wednesday 28 Jan 2015 (Local Time) from KBDG Reporting Station
Clear Clear  
Wind Chill: 31°   Ceiling: Unl
Heat Index: 37°   Visibility: 10mi
Dew Point: 31°   Wind: 8mph
Humidity: 80%   Direction: 360°N
Pressure: 30.35"   Gusts: NA
Location:  36.59°N, 110.65°W
Report Text: KBDG 290615Z AUTO 36007KT 10SM CLR 03/00 A3035 RMK AO1 T00261005
Loading
Personal Weather Stations






























Interactive Weather Map New forecast layout! Learn more

10-Day Weather Forecast

Advertisements
Track Severe Weather on mobile